createdAt,value
2018-06-20T00:02:15.381Z,19.90
2018-06-20T00:04:45.853Z,20.00
2018-06-20T00:07:16.608Z,20.00
2018-06-20T00:09:47.603Z,20.00
2018-06-20T00:12:17.785Z,20.00
2018-06-20T00:14:48.233Z,20.10
2018-06-20T00:17:18.366Z,20.10
2018-06-20T00:19:48.396Z,20.10
2018-06-20T00:22:18.930Z,20.10
2018-06-20T00:24:50.241Z,20.10
2018-06-20T00:27:20.725Z,20.10
2018-06-20T00:29:50.875Z,20.10
2018-06-20T00:32:21.204Z,20.10
2018-06-20T00:34:51.678Z,20.00
2018-06-20T00:37:21.935Z,20.00
2018-06-20T00:39:52.203Z,20.00
2018-06-20T00:42:22.311Z,20.00
2018-06-20T00:44:52.617Z,20.00
2018-06-20T00:47:23.163Z,20.00
2018-06-20T00:49:53.201Z,20.00
2018-06-20T00:52:23.594Z,19.90
2018-06-20T00:54:54.224Z,19.90
2018-06-20T00:57:24.249Z,19.80
2018-06-20T00:59:54.424Z,19.80
2018-06-20T01:02:24.874Z,19.70
2018-06-20T01:04:55.323Z,19.70
2018-06-20T01:07:26.510Z,19.70
2018-06-20T01:09:57.574Z,19.70
2018-06-20T01:12:28.693Z,19.70
2018-06-20T01:15:00.200Z,19.70
2018-06-20T01:17:30.649Z,19.70
2018-06-20T01:20:01.039Z,19.70
2018-06-20T01:22:31.026Z,19.70
2018-06-20T01:25:01.972Z,19.80
2018-06-20T01:27:33.021Z,19.80
2018-06-20T01:30:04.706Z,19.80
2018-06-20T01:32:36.321Z,19.80
2018-06-20T01:35:10.359Z,19.90
2018-06-20T01:37:40.581Z,19.90
2018-06-20T01:40:11.493Z,20.00
2018-06-20T01:42:43.320Z,20.00
2018-06-20T01:45:14.552Z,20.10
2018-06-20T01:47:44.697Z,20.10
2018-06-20T01:50:17.360Z,20.20
2018-06-20T01:52:49.116Z,20.30
2018-06-20T01:55:19.989Z,20.30
2018-06-20T01:57:50.623Z,20.30
2018-06-20T02:00:21.860Z,20.40
2018-06-20T02:02:53.370Z,20.40
2018-06-20T02:05:24.834Z,20.40
2018-06-20T02:07:55.553Z,20.50
2018-06-20T02:10:26.812Z,20.50
2018-06-20T02:12:58.012Z,20.50
2018-06-20T02:15:28.295Z,20.50
2018-06-20T02:17:58.390Z,20.40
2018-06-20T02:20:28.946Z,20.40
2018-06-20T02:22:59.141Z,20.40
2018-06-20T02:25:29.568Z,20.30
2018-06-20T02:28:00.032Z,20.30
2018-06-20T02:30:30.480Z,20.20
2018-06-20T02:33:00.579Z,20.20
2018-06-20T02:35:31.925Z,20.10
2018-06-20T02:38:02.045Z,20.00
2018-06-20T02:40:32.287Z,19.90
2018-06-20T02:43:02.351Z,19.90
2018-06-20T02:45:35.470Z,19.80
2018-06-20T02:48:05.681Z,19.70
2018-06-20T02:50:35.985Z,19.70
2018-06-20T02:53:06.192Z,19.60
2018-06-20T02:55:36.262Z,19.60
2018-06-20T02:58:06.609Z,19.50
2018-06-20T03:00:37.423Z,19.50
2018-06-20T03:03:07.690Z,19.50
2018-06-20T03:05:37.899Z,19.50
2018-06-20T03:08:08.235Z,19.50
2018-06-20T03:10:38.248Z,19.50
2018-06-20T03:13:09.192Z,19.50
2018-06-20T03:15:39.270Z,19.50
2018-06-20T03:18:09.610Z,19.60
2018-06-20T03:20:39.817Z,19.60
2018-06-20T03:23:10.034Z,19.70
2018-06-20T03:25:40.392Z,19.70
2018-06-20T03:28:10.531Z,19.70
2018-06-20T03:30:40.606Z,19.80
2018-06-20T03:33:11.386Z,19.80
2018-06-20T03:35:42.274Z,19.90
2018-06-20T03:38:12.572Z,19.90
2018-06-20T03:40:42.911Z,19.90
2018-06-20T03:43:13.063Z,20.00
2018-06-20T03:45:43.459Z,20.00
2018-06-20T03:48:13.553Z,20.10
2018-06-20T03:50:43.773Z,20.10
2018-06-20T03:53:13.976Z,20.10
2018-06-20T03:55:44.189Z,20.10
2018-06-20T03:58:14.381Z,20.20
2018-06-20T04:00:44.639Z,20.20
2018-06-20T04:03:15.094Z,20.20
2018-06-20T04:05:45.343Z,20.20
2018-06-20T04:08:15.770Z,20.30
2018-06-20T04:10:45.872Z,20.30
2018-06-20T04:13:16.063Z,20.30
2018-06-20T04:15:46.204Z,20.30
2018-06-20T04:18:16.654Z,20.30
2018-06-20T04:20:46.647Z,20.30
2018-06-20T04:23:16.949Z,20.30
2018-06-20T04:25:47.610Z,20.30
2018-06-20T04:28:17.937Z,20.40
2018-06-20T04:30:48.482Z,20.40
2018-06-20T04:33:19.320Z,20.40
2018-06-20T04:35:49.680Z,20.40
2018-06-20T04:38:19.746Z,20.40
2018-06-20T04:40:50.039Z,20.40
2018-06-20T04:43:20.707Z,20.50
2018-06-20T04:45:51.257Z,20.50
2018-06-20T04:48:23.733Z,20.40
2018-06-20T04:50:54.378Z,20.40
2018-06-20T04:53:25.613Z,20.40
2018-06-20T04:55:55.714Z,20.40
2018-06-20T04:58:26.017Z,20.40
2018-06-20T05:00:56.081Z,20.30
2018-06-20T05:03:26.790Z,20.30
2018-06-20T05:05:56.896Z,20.30
2018-06-20T05:08:27.668Z,20.30
2018-06-20T05:10:57.872Z,20.30
2018-06-20T05:13:28.213Z,20.30
2018-06-20T05:15:58.648Z,20.30
2018-06-20T05:18:28.889Z,20.30
2018-06-20T05:20:59.656Z,20.30
2018-06-20T05:23:30.556Z,20.30
2018-06-20T05:26:00.775Z,20.40
2018-06-20T05:28:31.769Z,20.40
2018-06-20T05:31:01.859Z,20.40
2018-06-20T05:33:32.521Z,20.40
2018-06-20T05:36:02.482Z,20.40
2018-06-20T05:38:32.693Z,20.40
2018-06-20T05:41:03.287Z,20.40
2018-06-20T05:43:33.735Z,20.40
2018-06-20T05:46:03.702Z,20.40
2018-06-20T05:48:34.118Z,20.40
2018-06-20T05:51:04.171Z,20.50
2018-06-20T05:53:34.726Z,20.50
2018-06-20T05:56:05.310Z,20.50
2018-06-20T05:58:35.534Z,20.60
2018-06-20T06:01:05.782Z,20.60
2018-06-20T06:03:36.041Z,20.70
2018-06-20T06:06:12.313Z,20.70
2018-06-20T06:08:42.972Z,20.80
2018-06-20T06:11:13.557Z,20.90
2018-06-20T06:13:44.088Z,21.10
2018-06-20T06:16:14.638Z,21.10
2018-06-20T06:18:44.853Z,21.20
2018-06-20T06:21:15.215Z,21.30
2018-06-20T06:23:46.177Z,21.50
2018-06-20T06:26:16.194Z,21.50
2018-06-20T06:28:46.602Z,21.60
2018-06-20T06:31:16.745Z,21.60
2018-06-20T06:33:46.871Z,21.60
2018-06-20T06:36:17.311Z,21.70
2018-06-20T06:38:47.344Z,21.70
2018-06-20T06:41:17.766Z,21.70
2018-06-20T06:43:48.438Z,21.70
2018-06-20T06:46:18.687Z,21.70
2018-06-20T06:48:48.806Z,21.80
2018-06-20T06:51:19.062Z,21.90
2018-06-20T06:53:49.564Z,22.00
2018-06-20T06:56:19.883Z,22.00
2018-06-20T06:58:50.298Z,22.10
2018-06-20T07:01:21.042Z,22.10
2018-06-20T07:03:51.401Z,22.20
2018-06-20T07:06:21.773Z,22.20
2018-06-20T07:08:52.053Z,22.40
2018-06-20T07:11:22.684Z,22.50
2018-06-20T07:13:53.050Z,22.60
2018-06-20T07:16:23.669Z,22.70
2018-06-20T07:18:55.044Z,22.70
2018-06-20T07:21:25.394Z,22.70
2018-06-20T07:23:56.403Z,22.80
2018-06-20T07:26:26.442Z,22.90
2018-06-20T07:28:56.669Z,23.00
2018-06-20T07:31:27.172Z,23.10
2018-06-20T07:33:57.500Z,23.20
2018-06-20T07:36:27.713Z,23.30
2018-06-20T07:38:57.963Z,23.40
2018-06-20T07:41:28.167Z,23.60
2018-06-20T07:43:58.342Z,23.70
2018-06-20T07:46:28.893Z,23.80
2018-06-20T07:48:59.104Z,23.90
2018-06-20T07:51:29.521Z,23.90
2018-06-20T07:53:59.845Z,24.00
2018-06-20T07:56:30.048Z,24.00
2018-06-20T07:59:00.254Z,24.10
2018-06-20T08:03:58.168Z,24.10
2018-06-20T08:06:33.590Z,23.90
2018-06-20T08:09:09.089Z,23.90
2018-06-20T08:11:44.341Z,24.00
2018-06-20T08:14:19.559Z,24.00
2018-06-20T08:16:54.627Z,24.00
2018-06-20T08:19:30.426Z,24.10
2018-06-20T08:22:00.602Z,24.10
2018-06-20T08:24:30.951Z,24.10
2018-06-20T08:27:01.210Z,24.20
2018-06-20T08:29:31.756Z,24.30
2018-06-20T08:32:02.252Z,24.50
2018-06-20T08:34:32.970Z,24.60
2018-06-20T08:37:03.422Z,24.60
2018-06-20T08:39:33.894Z,24.70
2018-06-20T08:42:04.170Z,24.70
2018-06-20T08:44:34.354Z,24.70
2018-06-20T08:47:04.839Z,24.80
2018-06-20T08:49:35.360Z,24.80
2018-06-20T08:52:05.695Z,24.80
2018-06-20T08:54:36.484Z,24.90
2018-06-20T08:57:07.226Z,25.00
2018-06-20T08:59:37.443Z,25.10
2018-06-20T09:02:08.251Z,25.20
2018-06-20T09:04:44.517Z,25.30
2018-06-20T09:07:19.705Z,25.40
2018-06-20T09:09:55.042Z,25.40
2018-06-20T09:12:30.796Z,25.40
2018-06-20T09:15:06.034Z,25.50
2018-06-20T09:17:41.316Z,25.50
2018-06-20T09:20:11.234Z,25.50
2018-06-20T09:22:41.692Z,25.50
2018-06-20T09:25:12.119Z,25.50
2018-06-20T09:27:42.583Z,25.50
2018-06-20T09:30:12.960Z,25.50
2018-06-20T09:32:43.252Z,25.40
2018-06-20T09:35:13.642Z,25.40
2018-06-20T09:37:43.905Z,25.30
2018-06-20T09:40:14.282Z,25.30
2018-06-20T09:42:44.717Z,25.30
2018-06-20T09:45:14.896Z,25.30
2018-06-20T09:47:45.269Z,25.30
2018-06-20T09:50:20.633Z,25.30
2018-06-20T09:52:51.159Z,25.30
2018-06-20T09:55:21.406Z,25.30
2018-06-20T09:57:52.054Z,25.20
2018-06-20T10:00:27.857Z,25.10
2018-06-20T10:03:03.437Z,25.00
2018-06-20T10:05:39.238Z,25.00
2018-06-20T10:08:14.330Z,24.90
2018-06-20T10:10:47.182Z,24.80
2018-06-20T10:13:18.741Z,24.70
2018-06-20T10:15:49.389Z,24.70
2018-06-20T10:18:20.454Z,24.70
2018-06-20T10:20:57.069Z,24.70
2018-06-20T10:23:27.404Z,24.70
2018-06-20T10:26:04.260Z,24.80
2018-06-20T10:28:34.568Z,24.80
2018-06-20T10:31:05.129Z,24.80
2018-06-20T10:33:36.013Z,24.70
2018-06-20T10:36:06.431Z,24.70
2018-06-20T10:38:37.049Z,24.70
2018-06-20T10:41:07.069Z,24.80
2018-06-20T10:43:37.206Z,24.70
2018-06-20T10:46:12.639Z,24.60
2018-06-20T10:48:42.982Z,24.50
2018-06-20T10:51:13.978Z,24.30
2018-06-20T10:53:44.545Z,24.20
2018-06-20T10:56:20.175Z,24.10
2018-06-20T10:58:55.885Z,24.20
2018-06-20T11:01:30.978Z,24.30
2018-06-20T11:04:06.413Z,24.50
2018-06-20T11:06:41.708Z,24.70
2018-06-20T11:09:17.989Z,24.70
2018-06-20T11:11:53.345Z,24.70
2018-06-20T11:14:23.114Z,24.50
2018-06-20T11:16:54.166Z,24.40
2018-06-20T11:19:25.227Z,24.30
2018-06-20T11:21:55.364Z,24.10
2018-06-20T11:24:25.995Z,24.00
2018-06-20T11:26:56.731Z,24.00
2018-06-20T11:29:27.739Z,24.00
2018-06-20T11:31:57.947Z,24.00
2018-06-20T11:34:28.209Z,24.00
2018-06-20T11:36:58.775Z,23.90
2018-06-20T11:39:29.329Z,23.80
2018-06-20T11:41:59.617Z,23.70
2018-06-20T11:44:29.882Z,23.50
2018-06-20T11:47:05.126Z,23.40
2018-06-20T11:49:35.105Z,23.20
2018-06-20T11:52:09.515Z,23.10
2018-06-20T11:54:39.598Z,23.00
2018-06-20T11:57:10.074Z,22.90
2018-06-20T11:59:45.513Z,22.70
2018-06-20T12:02:21.191Z,22.60
2018-06-20T12:04:56.814Z,22.40
2018-06-20T12:07:31.995Z,22.10
2018-06-20T12:10:07.132Z,22.00
2018-06-20T12:14:45.048Z,22.10
2018-06-20T12:17:20.833Z,22.20
2018-06-20T12:19:56.981Z,22.40
2018-06-20T12:22:32.195Z,22.60
2018-06-20T12:25:07.740Z,22.80
2018-06-20T12:27:43.059Z,23.00
2018-06-20T12:30:18.328Z,23.20
2018-06-20T12:32:54.042Z,23.30
2018-06-20T12:42:44.460Z,23.80
2018-06-20T12:45:17.685Z,23.90
2018-06-20T12:47:50.028Z,24.00
2018-06-20T12:50:23.937Z,24.00
2018-06-20T12:52:54.619Z,23.90
2018-06-20T12:55:25.971Z,23.80
2018-06-20T12:57:57.081Z,23.70
2018-06-20T13:00:27.420Z,23.80
2018-06-20T13:02:57.767Z,23.80
2018-06-20T13:05:28.421Z,23.90
2018-06-20T13:07:58.537Z,24.10
2018-06-20T13:10:28.688Z,24.30
2018-06-20T13:12:58.862Z,24.50
2018-06-20T13:15:29.044Z,24.80
2018-06-20T13:17:59.610Z,25.10
2018-06-20T13:20:29.779Z,25.40
2018-06-20T13:23:00.133Z,25.70
2018-06-20T13:25:30.426Z,26.00
2018-06-20T13:28:01.022Z,26.20
2018-06-20T13:30:32.238Z,26.40
2018-06-20T13:33:07.681Z,26.60
2018-06-20T13:35:42.964Z,26.80
2018-06-20T13:38:18.358Z,27.10
2018-06-20T13:40:54.216Z,27.30
2018-06-20T13:43:29.694Z,27.50
2018-06-20T13:46:05.029Z,27.50
2018-06-20T13:48:36.193Z,27.60
2018-06-20T13:51:06.334Z,27.70
2018-06-20T13:53:36.808Z,27.90
2018-06-20T13:56:07.747Z,28.20
2018-06-20T13:58:38.104Z,28.90
2018-06-20T14:01:08.154Z,29.40
2018-06-20T14:03:38.483Z,29.80
2018-06-20T14:06:08.618Z,29.80
2018-06-20T14:08:38.959Z,30.30
2018-06-20T14:11:09.117Z,30.80
2018-06-20T14:13:39.660Z,30.80
2018-06-20T14:16:10.430Z,30.40
2018-06-20T14:18:40.841Z,30.10
2018-06-20T14:21:16.155Z,29.80
2018-06-20T14:23:46.978Z,29.70
2018-06-20T14:26:17.679Z,30.20
2018-06-20T14:28:48.441Z,31.50
2018-06-20T14:31:23.450Z,32.50
2018-06-20T14:33:59.229Z,33.50
2018-06-20T14:36:34.283Z,34.40
2018-06-20T14:39:12.113Z,35.20
2018-06-20T14:41:47.913Z,35.00
2018-06-20T14:44:18.176Z,34.30
2018-06-20T14:46:48.289Z,33.30
2018-06-20T14:49:18.555Z,32.90
2018-06-20T14:51:49.001Z,32.00
2018-06-20T14:54:19.302Z,31.30
2018-06-20T14:56:50.085Z,30.70
2018-06-20T14:59:20.201Z,31.00
2018-06-20T15:01:50.541Z,30.60
2018-06-20T15:04:20.951Z,31.10
2018-06-20T15:06:51.704Z,32.30
2018-06-20T15:09:22.245Z,32.20
2018-06-20T15:11:52.554Z,32.00
2018-06-20T15:14:22.729Z,32.80
2018-06-20T15:16:58.094Z,33.40
2018-06-20T15:19:28.872Z,33.10
2018-06-20T15:21:59.145Z,32.10
2018-06-20T15:24:30.959Z,31.40
2018-06-20T15:27:06.186Z,30.70
2018-06-20T15:29:41.744Z,29.90
2018-06-20T15:32:17.158Z,29.10
2018-06-20T15:36:59.945Z,28.30
2018-06-20T15:39:30.022Z,28.30
2018-06-20T15:42:00.928Z,29.50
2018-06-20T15:44:32.034Z,29.70
2018-06-20T15:47:05.351Z,30.30
2018-06-20T15:49:37.705Z,31.00
2018-06-20T15:52:08.177Z,31.70
2018-06-20T15:54:38.962Z,32.10
2018-06-20T15:57:09.396Z,32.20
2018-06-20T15:59:40.232Z,31.80
2018-06-20T16:02:10.585Z,32.00
2018-06-20T16:04:40.566Z,31.90
2018-06-20T16:07:10.947Z,31.50
2018-06-20T16:09:46.896Z,31.10
2018-06-20T16:12:17.827Z,30.80
2018-06-20T16:14:47.891Z,30.50
2018-06-20T16:17:19.345Z,31.00
2018-06-20T16:20:58.892Z,31.40
2018-06-20T16:23:34.625Z,30.70
2018-06-20T16:26:09.864Z,30.00
2018-06-20T16:28:45.479Z,29.20
2018-06-20T16:31:15.980Z,28.40
2018-06-20T16:33:47.181Z,27.80
2018-06-20T16:36:17.552Z,27.10
2018-06-20T16:38:47.814Z,26.60
2018-06-20T16:41:18.403Z,26.00
2018-06-20T16:43:48.683Z,25.70
2018-06-20T16:46:18.726Z,25.30
2018-06-20T16:48:49.240Z,25.00
2018-06-20T16:51:19.763Z,24.70
2018-06-20T16:53:50.011Z,24.60
2018-06-20T16:56:20.610Z,24.70
2018-06-20T16:58:50.818Z,24.70
2018-06-20T17:01:26.206Z,24.80
2018-06-20T17:03:56.585Z,24.90
2018-06-20T17:06:27.084Z,24.90
2018-06-20T17:08:57.978Z,25.30
2018-06-20T17:11:29.002Z,26.10
2018-06-20T17:14:04.581Z,26.70
2018-06-20T17:16:39.641Z,27.40
2018-06-20T17:19:14.892Z,27.70
2018-06-20T17:21:51.531Z,27.50
2018-06-20T17:24:26.969Z,27.80
2018-06-20T17:26:57.560Z,28.10
2018-06-20T17:29:29.135Z,28.50
2018-06-20T17:32:00.623Z,28.70
2018-06-20T17:34:30.942Z,28.80
2018-06-20T17:37:01.292Z,28.40
2018-06-20T17:39:32.085Z,27.90
2018-06-20T17:42:02.634Z,27.00
2018-06-20T17:44:33.226Z,26.10
2018-06-20T17:47:03.572Z,25.30
2018-06-20T17:49:34.320Z,24.60
2018-06-20T17:52:05.848Z,24.10
2018-06-20T17:54:35.947Z,23.70
2018-06-20T17:57:06.689Z,23.60
2018-06-20T17:59:37.942Z,23.20
2018-06-20T18:02:09.684Z,22.90
2018-06-20T18:04:45.546Z,23.20
2018-06-20T18:07:21.771Z,23.30
2018-06-20T18:09:58.160Z,22.90
2018-06-20T18:13:04.641Z,22.50
2018-06-20T18:15:40.058Z,22.00
2018-06-20T18:18:10.521Z,21.70
2018-06-20T18:20:40.808Z,21.50
2018-06-20T18:23:12.184Z,21.20
2018-06-20T18:25:45.074Z,21.00
2018-06-20T18:28:16.416Z,20.80
2018-06-20T18:30:48.566Z,20.80
2018-06-20T18:33:19.965Z,20.60
2018-06-20T18:35:50.929Z,20.50
2018-06-20T18:38:22.411Z,20.50
2018-06-20T18:40:53.625Z,20.30
2018-06-20T18:43:25.310Z,20.20
2018-06-20T18:45:58.458Z,20.20
2018-06-20T18:48:29.391Z,20.10
2018-06-20T18:51:01.274Z,20.00
2018-06-20T18:53:31.931Z,20.00
2018-06-20T18:56:02.682Z,20.00
2018-06-20T18:58:38.858Z,19.90
2018-06-20T19:01:14.280Z,19.80
2018-06-20T19:03:50.234Z,19.80
2018-06-20T19:06:26.175Z,19.80
2018-06-20T19:08:59.212Z,19.70
2018-06-20T19:11:30.734Z,19.60
2018-06-20T19:14:01.652Z,19.50
2018-06-20T19:16:33.459Z,19.50
2018-06-20T19:19:10.502Z,19.50
2018-06-20T19:21:41.796Z,19.40
2018-06-20T19:24:12.430Z,19.40
2018-06-20T19:26:45.902Z,19.30
2018-06-20T19:29:17.174Z,19.30
2018-06-20T19:31:47.756Z,19.20
2018-06-20T19:34:18.545Z,19.10
2018-06-20T19:36:52.009Z,19.00
2018-06-20T19:39:27.850Z,18.90
2018-06-20T19:42:03.285Z,18.90
2018-06-20T19:44:41.964Z,18.70
2018-06-20T19:47:12.644Z,18.60
2018-06-20T19:49:43.846Z,18.60
2018-06-20T19:52:14.412Z,18.50
2018-06-20T19:54:44.515Z,18.40
2018-06-20T19:57:15.803Z,18.30
2018-06-20T19:59:46.268Z,18.20
2018-06-20T20:02:17.928Z,18.10
2018-06-20T20:04:48.695Z,18.10
2018-06-20T20:07:19.977Z,18.00
2018-06-20T20:09:50.301Z,17.90
2018-06-20T20:12:22.405Z,17.80
2018-06-20T20:14:53.692Z,17.70
2018-06-20T20:17:24.653Z,17.70
2018-06-20T20:19:56.956Z,17.60
2018-06-20T20:22:28.370Z,17.50
2018-06-20T20:24:58.932Z,17.40
2018-06-20T20:27:31.809Z,17.30
2018-06-20T20:30:03.218Z,17.20
2018-06-20T20:32:34.291Z,17.10
2018-06-20T20:35:05.472Z,17.10
2018-06-20T20:37:37.341Z,17.00
2018-06-20T20:40:08.596Z,16.90
2018-06-20T20:42:38.305Z,16.80
2018-06-20T20:45:09.419Z,16.70
2018-06-20T20:47:43.478Z,16.70
2018-06-20T20:50:14.956Z,16.60
2018-06-20T20:52:46.337Z,16.60
2018-06-20T20:55:17.066Z,16.50
2018-06-20T20:57:48.685Z,16.50
2018-06-20T21:00:19.481Z,16.40
2018-06-20T21:02:51.318Z,16.40
2018-06-20T21:05:23.282Z,16.30
2018-06-20T21:07:54.754Z,16.30
2018-06-20T21:10:25.467Z,16.20
2018-06-20T21:12:56.321Z,16.20
2018-06-20T21:15:26.812Z,16.20
2018-06-20T21:17:57.230Z,16.20
2018-06-20T21:20:29.920Z,16.10
2018-06-20T21:23:02.224Z,16.10
2018-06-20T21:25:33.485Z,16.10
2018-06-20T21:28:03.965Z,16.00
2018-06-20T21:30:34.188Z,15.80
2018-06-20T21:33:04.327Z,16.00
2018-06-20T21:35:34.543Z,15.90
2018-06-20T21:38:05.841Z,15.90
2018-06-20T21:40:35.977Z,15.80
2018-06-20T21:43:07.057Z,15.80
2018-06-20T21:45:37.782Z,15.80
2018-06-20T21:48:11.343Z,15.80
2018-06-20T21:50:42.878Z,15.80
2018-06-20T21:53:13.455Z,15.70
2018-06-20T21:55:44.081Z,15.70
2018-06-20T21:58:14.177Z,15.70
2018-06-20T22:00:44.661Z,15.70
2018-06-20T22:03:14.829Z,15.70
2018-06-20T22:05:44.818Z,15.60
2018-06-20T22:08:14.959Z,15.60
2018-06-20T22:10:45.114Z,15.60
2018-06-20T22:13:15.654Z,15.60
2018-06-20T22:15:46.118Z,15.60
2018-06-20T22:18:16.641Z,15.50
2018-06-20T22:20:46.970Z,15.50
2018-06-20T22:23:17.586Z,15.50
2018-06-20T22:25:48.538Z,15.50
2018-06-20T22:28:18.669Z,15.40
2018-06-20T22:30:48.955Z,15.40
2018-06-20T22:33:19.716Z,15.30
2018-06-20T22:35:49.911Z,15.30
2018-06-20T22:38:20.154Z,15.30
2018-06-20T22:40:50.734Z,15.20
2018-06-20T22:43:20.990Z,15.20
2018-06-20T22:45:51.442Z,15.20
2018-06-20T22:48:21.833Z,15.20
2018-06-20T22:50:52.117Z,15.20
2018-06-20T22:53:22.253Z,15.20
2018-06-20T22:55:52.663Z,15.10
2018-06-20T22:58:23.932Z,15.10
2018-06-20T23:00:53.931Z,15.10
2018-06-20T23:03:24.068Z,15.10
2018-06-20T23:05:54.447Z,15.00
2018-06-20T23:08:24.824Z,15.00
2018-06-20T23:10:56.423Z,15.00
2018-06-20T23:13:26.677Z,14.90
2018-06-20T23:15:57.071Z,14.90
2018-06-20T23:18:27.683Z,14.90
2018-06-20T23:20:58.288Z,14.80
2018-06-20T23:23:28.606Z,14.80
2018-06-20T23:25:59.255Z,14.80
2018-06-20T23:28:29.668Z,14.70
2018-06-20T23:30:59.902Z,14.70
2018-06-20T23:33:30.391Z,14.70
2018-06-20T23:36:01.921Z,14.60
2018-06-20T23:38:32.336Z,14.60
2018-06-20T23:41:03.258Z,14.60
2018-06-20T23:43:33.520Z,14.60
2018-06-20T23:46:03.602Z,14.50
2018-06-20T23:48:34.033Z,14.50
2018-06-20T23:51:04.742Z,14.50
2018-06-20T23:53:34.885Z,14.50
2018-06-20T23:56:05.233Z,14.50
2018-06-20T23:58:35.046Z,14.50
